sensor_id;sensor_type;location;lat;lon;timestamp;P1;durP1;ratioP1;P2;durP2;ratioP2
22017;SDS011;11173;51.050;7.108;2023-06-24T00:09:37;3.28;;;2.92;;
22017;SDS011;11173;51.050;7.108;2023-06-24T00:19:38;2.70;;;2.50;;
22017;SDS011;11173;51.050;7.108;2023-06-24T00:29:38;2.67;;;2.47;;
22017;SDS011;11173;51.050;7.108;2023-06-24T00:39:39;3.45;;;2.75;;
22017;SDS011;11173;51.050;7.108;2023-06-24T00:49:39;3.17;;;2.97;;
22017;SDS011;11173;51.050;7.108;2023-06-24T00:59:39;2.80;;;2.60;;
22017;SDS011;11173;51.050;7.108;2023-06-24T01:09:43;3.78;;;3.20;;
22017;SDS011;11173;51.050;7.108;2023-06-24T01:19:53;3.22;;;2.92;;
22017;SDS011;11173;51.050;7.108;2023-06-24T01:30:02;3.10;;;2.90;;
22017;SDS011;11173;51.050;7.108;2023-06-24T01:40:09;3.83;;;3.45;;
22017;SDS011;11173;51.050;7.108;2023-06-24T01:50:12;3.50;;;3.20;;
22017;SDS011;11173;51.050;7.108;2023-06-24T02:00:14;3.88;;;3.58;;
22017;SDS011;11173;51.050;7.108;2023-06-24T02:10:16;3.47;;;3.28;;
22017;SDS011;11173;51.050;7.108;2023-06-24T02:20:18;3.40;;;3.20;;
22017;SDS011;11173;51.050;7.108;2023-06-24T02:30:21;3.42;;;3.22;;
22017;SDS011;11173;51.050;7.108;2023-06-24T02:40:23;4.40;;;3.45;;
22017;SDS011;11173;51.050;7.108;2023-06-24T02:50:24;3.38;;;3.08;;
22017;SDS011;11173;51.050;7.108;2023-06-24T03:00:26;2.90;;;2.70;;
22017;SDS011;11173;51.050;7.108;2023-06-24T03:10:27;3.33;;;3.13;;
22017;SDS011;11173;51.050;7.108;2023-06-24T03:20:27;2.80;;;2.60;;
22017;SDS011;11173;51.050;7.108;2023-06-24T03:30:28;3.58;;;3.20;;
22017;SDS011;11173;51.050;7.108;2023-06-24T03:40:28;3.55;;;3.35;;
22017;SDS011;11173;51.050;7.108;2023-06-24T03:50:29;3.53;;;3.25;;
22017;SDS011;11173;51.050;7.108;2023-06-24T04:00:29;3.30;;;3.10;;
22017;SDS011;11173;51.050;7.108;2023-06-24T04:10:30;3.10;;;2.90;;
22017;SDS011;11173;51.050;7.108;2023-06-24T04:20:30;3.55;;;3.25;;
22017;SDS011;11173;51.050;7.108;2023-06-24T04:30:31;4.40;;;2.42;;
22017;SDS011;11173;51.050;7.108;2023-06-24T04:40:32;2.88;;;2.67;;
22017;SDS011;11173;51.050;7.108;2023-06-24T04:50:32;1.70;;;1.60;;
22017;SDS011;11173;51.050;7.108;2023-06-24T05:00:32;1.35;;;1.30;;
22017;SDS011;11173;51.050;7.108;2023-06-24T05:10:33;0.60;;;0.60;;
22017;SDS011;11173;51.050;7.108;2023-06-24T05:20:33;0.63;;;0.50;;
22017;SDS011;11173;51.050;7.108;2023-06-24T05:30:34;1.63;;;1.52;;
22017;SDS011;11173;51.050;7.108;2023-06-24T05:40:34;1.25;;;1.20;;
22017;SDS011;11173;51.050;7.108;2023-06-24T05:50:34;0.60;;;0.60;;
22017;SDS011;11173;51.050;7.108;2023-06-24T06:00:36;0.57;;;0.57;;
22017;SDS011;11173;51.050;7.108;2023-06-24T06:10:36;0.60;;;0.60;;
22017;SDS011;11173;51.050;7.108;2023-06-24T06:20:37;0.40;;;0.40;;
22017;SDS011;11173;51.050;7.108;2023-06-24T06:30:38;0.60;;;0.60;;
22017;SDS011;11173;51.050;7.108;2023-06-24T06:40:38;0.40;;;0.40;;
22017;SDS011;11173;51.050;7.108;2023-06-24T06:50:39;1.08;;;0.47;;
22017;SDS011;11173;51.050;7.108;2023-06-24T07:00:39;1.58;;;1.48;;
22017;SDS011;11173;51.050;7.108;2023-06-24T07:10:39;2.55;;;2.40;;
22017;SDS011;11173;51.050;7.108;2023-06-24T07:20:40;2.50;;;2.30;;
22017;SDS011;11173;51.050;7.108;2023-06-24T07:30:40;2.17;;;2.08;;
22017;SDS011;11173;51.050;7.108;2023-06-24T07:40:41;1.03;;;0.90;;
22017;SDS011;11173;51.050;7.108;2023-06-24T07:50:41;0.90;;;0.90;;
22017;SDS011;11173;51.050;7.108;2023-06-24T08:00:41;1.95;;;1.85;;
22017;SDS011;11173;51.050;7.108;2023-06-24T08:10:42;2.97;;;2.40;;
22017;SDS011;11173;51.050;7.108;2023-06-24T08:20:43;2.35;;;2.15;;
22017;SDS011;11173;51.050;7.108;2023-06-24T08:30:43;3.88;;;2.20;;
22017;SDS011;11173;51.050;7.108;2023-06-24T08:40:43;3.08;;;2.88;;
22017;SDS011;11173;51.050;7.108;2023-06-24T08:50:46;3.63;;;3.35;;
22017;SDS011;11173;51.050;7.108;2023-06-24T09:00:50;1.45;;;1.35;;
22017;SDS011;11173;51.050;7.108;2023-06-24T09:10:54;3.30;;;3.05;;
22017;SDS011;11173;51.050;7.108;2023-06-24T09:20:58;1.98;;;1.88;;
22017;SDS011;11173;51.050;7.108;2023-06-24T09:31:05;3.17;;;2.90;;
22017;SDS011;11173;51.050;7.108;2023-06-24T09:41:05;2.83;;;2.65;;
22017;SDS011;11173;51.050;7.108;2023-06-24T09:51:06;1.70;;;1.60;;
22017;SDS011;11173;51.050;7.108;2023-06-24T10:01:08;4.47;;;3.90;;
22017;SDS011;11173;51.050;7.108;2023-06-24T10:11:09;3.63;;;3.33;;
22017;SDS011;11173;51.050;7.108;2023-06-24T10:21:09;2.83;;;1.85;;
22017;SDS011;11173;51.050;7.108;2023-06-24T10:31:10;2.78;;;2.58;;
22017;SDS011;11173;51.050;7.108;2023-06-24T10:41:16;1.60;;;1.50;;
22017;SDS011;11173;51.050;7.108;2023-06-24T10:51:18;3.83;;;2.30;;
22017;SDS011;11173;51.050;7.108;2023-06-24T11:01:19;1.90;;;1.80;;
22017;SDS011;11173;51.050;7.108;2023-06-24T11:11:19;2.28;;;2.08;;
22017;SDS011;11173;51.050;7.108;2023-06-24T11:21:27;1.85;;;1.75;;
22017;SDS011;11173;51.050;7.108;2023-06-24T11:31:29;1.37;;;1.27;;
22017;SDS011;11173;51.050;7.108;2023-06-24T11:41:33;0.90;;;0.90;;
22017;SDS011;11173;51.050;7.108;2023-06-24T11:51:33;1.73;;;1.55;;
22017;SDS011;11173;51.050;7.108;2023-06-24T12:01:35;2.20;;;1.70;;
22017;SDS011;11173;51.050;7.108;2023-06-24T12:11:39;1.08;;;0.90;;
22017;SDS011;11173;51.050;7.108;2023-06-24T12:21:40;1.42;;;1.33;;
22017;SDS011;11173;51.050;7.108;2023-06-24T12:31:40;0.93;;;0.93;;
22017;SDS011;11173;51.050;7.108;2023-06-24T12:41:41;1.60;;;1.48;;
22017;SDS011;11173;51.050;7.108;2023-06-24T12:51:41;1.50;;;1.40;;
22017;SDS011;11173;51.050;7.108;2023-06-24T13:01:42;1.40;;;1.30;;
22017;SDS011;11173;51.050;7.108;2023-06-24T13:11:44;0.80;;;0.80;;
22017;SDS011;11173;51.050;7.108;2023-06-24T13:21:45;1.30;;;1.20;;
22017;SDS011;11173;51.050;7.108;2023-06-24T13:31:45;1.23;;;1.20;;
22017;SDS011;11173;51.050;7.108;2023-06-24T13:41:46;2.13;;;1.70;;
22017;SDS011;11173;51.050;7.108;2023-06-24T13:51:47;1.33;;;1.23;;
22017;SDS011;11173;51.050;7.108;2023-06-24T14:01:47;3.08;;;1.40;;
22017;SDS011;11173;51.050;7.108;2023-06-24T14:11:48;2.03;;;1.52;;
22017;SDS011;11173;51.050;7.108;2023-06-24T14:21:48;1.00;;;1.00;;
22017;SDS011;11173;51.050;7.108;2023-06-24T14:31:48;1.13;;;1.05;;
22017;SDS011;11173;51.050;7.108;2023-06-24T14:41:49;1.27;;;1.15;;
22017;SDS011;11173;51.050;7.108;2023-06-24T14:51:49;1.10;;;1.10;;
22017;SDS011;11173;51.050;7.108;2023-06-24T15:01:52;1.30;;;1.20;;
22017;SDS011;11173;51.050;7.108;2023-06-24T15:11:52;0.90;;;0.90;;
22017;SDS011;11173;51.050;7.108;2023-06-24T15:21:52;1.17;;;0.80;;
22017;SDS011;11173;51.050;7.108;2023-06-24T15:31:53;1.83;;;1.10;;
22017;SDS011;11173;51.050;7.108;2023-06-24T15:41:53;0.85;;;0.85;;
22017;SDS011;11173;51.050;7.108;2023-06-24T15:51:54;0.95;;;0.95;;
22017;SDS011;11173;51.050;7.108;2023-06-24T16:01:54;0.80;;;0.80;;
22017;SDS011;11173;51.050;7.108;2023-06-24T16:11:54;0.82;;;0.82;;
22017;SDS011;11173;51.050;7.108;2023-06-24T16:40:14;0.50;;;0.50;;
22017;SDS011;11173;51.050;7.108;2023-06-24T16:50:35;0.68;;;0.68;;
22017;SDS011;11173;51.050;7.108;2023-06-24T17:00:55;1.10;;;0.80;;
22017;SDS011;11173;51.050;7.108;2023-06-24T17:11:16;0.80;;;0.80;;
22017;SDS011;11173;51.050;7.108;2023-06-24T17:21:37;1.15;;;0.50;;
22017;SDS011;11173;51.050;7.108;2023-06-24T17:31:57;0.50;;;0.50;;
22017;SDS011;11173;51.050;7.108;2023-06-24T17:42:18;0.50;;;0.50;;
22017;SDS011;11173;51.050;7.108;2023-06-24T17:52:40;0.50;;;0.50;;
22017;SDS011;11173;51.050;7.108;2023-06-24T18:03:00;0.40;;;0.40;;
22017;SDS011;11173;51.050;7.108;2023-06-24T18:13:21;0.40;;;0.40;;
22017;SDS011;11173;51.050;7.108;2023-06-24T18:23:42;0.15;;;0.15;;
22017;SDS011;11173;51.050;7.108;2023-06-24T18:34:04;0.30;;;0.30;;
22017;SDS011;11173;51.050;7.108;2023-06-24T18:44:25;0.20;;;0.20;;
22017;SDS011;11173;51.050;7.108;2023-06-24T18:54:46;0.15;;;0.15;;
22017;SDS011;11173;51.050;7.108;2023-06-24T19:05:07;0.50;;;0.50;;
22017;SDS011;11173;51.050;7.108;2023-06-24T19:15:07;0.30;;;0.30;;
22017;SDS011;11173;51.050;7.108;2023-06-24T19:25:10;0.20;;;0.20;;
22017;SDS011;11173;51.050;7.108;2023-06-24T19:35:10;0.10;;;0.10;;
22017;SDS011;11173;51.050;7.108;2023-06-24T19:45:11;0.30;;;0.30;;
22017;SDS011;11173;51.050;7.108;2023-06-24T19:55:12;0.22;;;0.22;;
22017;SDS011;11173;51.050;7.108;2023-06-24T20:05:13;0.40;;;0.40;;
22017;SDS011;11173;51.050;7.108;2023-06-24T20:15:14;0.40;;;0.40;;
22017;SDS011;11173;51.050;7.108;2023-06-24T20:25:14;0.38;;;0.38;;
22017;SDS011;11173;51.050;7.108;2023-06-24T20:35:14;1.08;;;1.00;;
22017;SDS011;11173;51.050;7.108;2023-06-24T20:45:16;1.63;;;1.08;;
22017;SDS011;11173;51.050;7.108;2023-06-24T20:55:18;1.48;;;1.38;;
22017;SDS011;11173;51.050;7.108;2023-06-24T21:05:19;1.45;;;1.33;;
22017;SDS011;11173;51.050;7.108;2023-06-24T21:15:20;2.20;;;1.17;;
22017;SDS011;11173;51.050;7.108;2023-06-24T21:25:20;1.60;;;1.50;;
22017;SDS011;11173;51.050;7.108;2023-06-24T21:35:20;1.52;;;1.42;;
22017;SDS011;11173;51.050;7.108;2023-06-24T21:45:21;2.08;;;1.95;;
22017;SDS011;11173;51.050;7.108;2023-06-24T21:55:21;1.60;;;1.50;;
22017;SDS011;11173;51.050;7.108;2023-06-24T22:05:21;1.70;;;1.60;;
22017;SDS011;11173;51.050;7.108;2023-06-24T22:15:22;2.00;;;1.90;;
22017;SDS011;11173;51.050;7.108;2023-06-24T22:25:23;6.25;;;1.80;;
22017;SDS011;11173;51.050;7.108;2023-06-24T22:35:23;2.13;;;1.90;;
22017;SDS011;11173;51.050;7.108;2023-06-24T22:45:23;4.05;;;2.03;;
22017;SDS011;11173;51.050;7.108;2023-06-24T22:55:24;2.30;;;2.10;;
22017;SDS011;11173;51.050;7.108;2023-06-24T23:05:24;2.30;;;2.10;;
22017;SDS011;11173;51.050;7.108;2023-06-24T23:15:25;2.20;;;2.00;;
22017;SDS011;11173;51.050;7.108;2023-06-24T23:25:27;2.40;;;2.20;;
22017;SDS011;11173;51.050;7.108;2023-06-24T23:35:30;2.90;;;2.70;;
22017;SDS011;11173;51.050;7.108;2023-06-24T23:45:30;2.97;;;2.15;;
22017;SDS011;11173;51.050;7.108;2023-06-24T23:55:31;2.78;;;2.28;;
